Time;durP1;ratioP1;P1;durP2;ratioP2;P2;SDS_P1;SDS_P2;PMS_P1;PMS_P2;Temp;Humidity;BMP_temperature;BMP_pressure;BME280_temperature;BME280_humidity;BME280_pressure;Samples;Min_cycle;Max_cycle;Signal;HPM_P1;HPM_P2
2023/04/24 00:01:21;;;;;;;1.03;0.80;;;;;;;10.93;100.00;97121.97;4988359;28;20307;-86
2023/04/24 00:03:47;;;;;;;1.57;0.87;;;;;;;11.00;100.00;97120.50;4988634;28;20219;-86
2023/04/24 00:06:16;;;;;;;1.03;0.87;;;;;;;11.05;100.00;97128.84;4989873;28;20328;-86
2023/04/24 00:08:43;;;;;;;1.67;0.87;;;;;;;11.10;100.00;97116.91;4992957;28;20693;-85
2023/04/24 00:11:11;;;;;;;1.40;0.80;;;;;;;11.15;100.00;97116.50;5003302;28;20229;-86
2023/04/24 00:13:38;;;;;;;1.53;0.80;;;;;;;11.25;100.00;97122.69;4992104;28;20222;-86
2023/04/24 00:16:05;;;;;;;2.00;0.97;;;;;;;11.24;100.00;97126.28;5007710;28;20229;-86
2023/04/24 00:18:32;;;;;;;0.87;0.80;;;;;;;11.33;100.00;97128.13;4995557;28;20228;-86
2023/04/24 00:20:58;;;;;;;1.33;0.90;;;;;;;11.39;100.00;97128.44;4991500;28;20238;-86
2023/04/24 00:23:25;;;;;;;1.00;0.67;;;;;;;11.41;100.00;97122.97;4992248;28;20213;-86
2023/04/24 00:25:51;;;;;;;2.13;0.80;;;;;;;11.37;100.00;97109.19;4991954;28;20695;-86
2023/04/24 00:28:19;;;;;;;3.53;0.90;;;;;;;11.40;100.00;97119.53;4991746;28;20214;-86
2023/04/24 00:30:46;;;;;;;1.70;0.73;;;;;;;11.46;100.00;97124.28;4991166;28;20219;-86
2023/04/24 00:33:12;;;;;;;1.10;0.97;;;;;;;11.53;100.00;97117.47;4992050;28;20573;-86
2023/04/24 00:35:39;;;;;;;1.73;0.80;;;;;;;11.56;100.00;97125.09;4992335;28;20739;-84
2023/04/24 00:38:06;;;;;;;2.67;1.17;;;;;;;11.56;100.00;97121.66;4992275;28;20218;-76
2023/04/24 00:40:32;;;;;;;1.20;0.80;;;;;;;11.56;100.00;97119.00;4991134;28;20206;-79
2023/04/24 00:42:59;;;;;;;1.53;0.80;;;;;;;11.58;100.00;97122.34;4992313;28;20211;-80
2023/04/24 00:45:27;;;;;;;1.13;0.70;;;;;;;11.59;100.00;97121.38;4991403;28;20237;-79
2023/04/24 00:47:54;;;;;;;0.80;0.60;;;;;;;11.58;99.82;97117.03;4991896;28;20221;-79
2023/04/24 00:50:22;;;;;;;1.27;0.70;;;;;;;11.65;100.00;97118.19;4991169;28;20221;-80
2023/04/24 00:52:48;;;;;;;2.20;0.90;;;;;;;11.60;100.00;97115.13;5002008;28;20314;-79
2023/04/24 00:55:15;;;;;;;1.63;0.70;;;;;;;11.57;100.00;97115.38;5016715;28;20217;-80
2023/04/24 00:57:42;;;;;;;2.93;0.80;;;;;;;11.58;100.00;97114.41;5016751;28;20198;-80
2023/04/24 01:00:11;;;;;;;2.03;1.10;;;;;;;11.55;100.00;97114.69;5015444;28;20209;-80
2023/04/24 01:02:43;;;;;;;0.93;0.70;;;;;;;11.58;100.00;97119.69;5016350;28;20202;-80
2023/04/24 01:05:11;;;;;;;0.93;0.90;;;;;;;11.55;100.00;97106.75;5015282;28;20225;-80
2023/04/24 01:07:39;;;;;;;0.70;0.70;;;;;;;11.59;100.00;97114.31;5014824;28;20198;-79
2023/04/24 01:10:06;;;;;;;1.37;0.80;;;;;;;11.58;100.00;97117.03;5013504;28;20202;-79
2023/04/24 01:12:33;;;;;;;1.13;0.67;;;;;;;11.61;100.00;97108.88;5014435;28;20220;-79
2023/04/24 01:15:00;;;;;;;1.07;0.80;;;;;;;11.63;99.49;97106.91;5014365;28;20221;-79
2023/04/24 01:17:26;;;;;;;1.47;0.80;;;;;;;11.61;99.75;97108.88;5012386;28;20211;-79
2023/04/24 01:19:56;;;;;;;0.87;0.70;;;;;;;11.61;99.90;97108.88;5012822;28;20228;-83
2023/04/24 01:22:24;;;;;;;1.57;0.70;;;;;;;11.59;99.53;97103.72;5009909;28;20206;-80
2023/04/24 01:24:51;;;;;;;0.53;0.53;;;;;;;11.65;99.37;97097.03;5007372;28;20214;-79
2023/04/24 01:27:17;;;;;;;3.03;1.00;;;;;;;11.64;98.79;97105.94;5007200;28;20268;-80
2023/04/24 01:29:44;;;;;;;2.20;1.00;;;;;;;11.54;99.37;97099.75;5005504;28;20229;-78
2023/04/24 01:32:11;;;;;;;1.03;0.70;;;;;;;11.53;100.00;97092.78;5010357;28;20274;-81
2023/04/24 01:34:38;;;;;;;3.00;0.80;;;;;;;11.44;100.00;97093.63;5010102;28;20562;-78
2023/04/24 01:37:05;;;;;;;0.93;0.70;;;;;;;11.37;100.00;97097.78;5008763;28;20233;-79
2023/04/24 01:39:33;;;;;;;2.00;0.70;;;;;;;11.29;100.00;97097.63;5009417;28;20206;-78
2023/04/24 01:42:01;;;;;;;0.80;0.77;;;;;;;11.27;100.00;97096.94;5010388;28;20220;-79
2023/04/24 01:44:28;;;;;;;0.80;0.80;;;;;;;11.21;100.00;97094.81;5008670;28;20274;-78
2023/04/24 01:46:56;;;;;;;1.80;0.70;;;;;;;11.12;100.00;97093.00;5008447;28;20234;-78
2023/04/24 01:49:22;;;;;;;1.50;0.77;;;;;;;11.06;100.00;97090.88;5007911;28;20216;-83
2023/04/24 01:51:49;;;;;;;1.13;0.70;;;;;;;11.01;100.00;97093.09;5007896;28;20221;-81
2023/04/24 01:54:15;;;;;;;1.00;0.80;;;;;;;11.04;100.00;97096.31;4991464;28;20210;-79
2023/04/24 01:56:44;;;;;;;0.90;0.80;;;;;;;11.06;100.00;97090.88;4990662;28;20230;-79
2023/04/24 01:59:11;;;;;;;0.60;0.60;;;;;;;10.99;100.00;97087.09;4990131;28;20210;-79
2023/04/24 02:01:39;;;;;;;0.97;0.73;;;;;;;10.95;100.00;97096.28;4990671;28;20283;-79
2023/04/24 02:04:07;;;;;;;1.00;0.77;;;;;;;10.89;100.00;97096.81;4990528;28;20225;-81
2023/04/24 02:06:33;;;;;;;1.73;0.77;;;;;;;10.77;100.00;97097.84;4990496;28;20260;-79
2023/04/24 02:09:00;;;;;;;1.13;0.70;;;;;;;10.73;100.00;97094.66;4990303;28;20707;-80
2023/04/24 02:11:27;;;;;;;1.47;0.90;;;;;;;10.73;100.00;97101.72;4996692;28;20687;-78
2023/04/24 02:13:55;;;;;;;2.80;0.90;;;;;;;10.71;100.00;97091.28;4992501;28;20216;-80
2023/04/24 02:16:21;;;;;;;1.30;0.83;;;;;;;10.65;100.00;97099.72;4990310;28;20223;-80
2023/04/24 02:18:48;;;;;;;1.23;0.70;;;;;;;10.70;100.00;97107.28;4990257;28;20228;-80
2023/04/24 02:21:14;;;;;;;2.03;0.90;;;;;;;10.76;100.00;97098.84;4989753;28;20595;-79
2023/04/24 02:23:41;;;;;;;1.40;1.00;;;;;;;10.80;100.00;97094.94;4990379;28;20583;-80
2023/04/24 02:26:07;;;;;;;1.67;0.80;;;;;;;10.85;100.00;97096.22;4989866;28;20238;-80
2023/04/24 02:28:34;;;;;;;0.87;0.80;;;;;;;10.96;100.00;97097.94;4989592;28;20684;-80
2023/04/24 02:31:02;;;;;;;2.50;1.00;;;;;;;11.00;100.00;97094.06;4989085;28;20658;-80
2023/04/24 02:33:28;;;;;;;1.77;0.90;;;;;;;11.03;100.00;97094.63;4990110;28;20206;-80
2023/04/24 02:35:54;;;;;;;1.00;0.80;;;;;;;11.11;100.00;97104.53;4997745;23;20608;-78
2023/04/24 02:38:21;;;;;;;1.23;0.90;;;;;;;11.15;100.00;97114.72;4970416;28;20214;-78
2023/04/24 02:40:47;;;;;;;0.83;0.80;;;;;;;11.17;100.00;97111.91;4982633;28;20210;-78
2023/04/24 02:43:14;;;;;;;0.73;0.70;;;;;;;11.18;100.00;97114.44;4986383;28;20214;-78
2023/04/24 02:45:40;;;;;;;1.53;0.70;;;;;;;11.22;100.00;97110.56;4988422;28;20419;-78
2023/04/24 02:48:08;;;;;;;1.47;1.00;;;;;;;11.25;100.00;97114.75;4989204;28;20211;-78
2023/04/24 02:50:35;;;;;;;2.90;0.80;;;;;;;11.23;100.00;97114.03;4988728;28;20214;-79
2023/04/24 02:53:01;;;;;;;1.20;0.90;;;;;;;11.08;100.00;97113.56;4989429;28;20289;-79
2023/04/24 02:55:28;;;;;;;1.00;0.80;;;;;;;11.00;100.00;97109.94;4981633;28;20612;-79
2023/04/24 02:57:54;;;;;;;2.03;0.70;;;;;;;10.97;100.00;97104.88;4973466;28;20203;-79
2023/04/24 03:00:21;;;;;;;0.63;0.60;;;;;;;10.96;100.00;97097.94;4973292;28;20681;-79
2023/04/24 03:02:49;;;;;;;1.03;0.80;;;;;;;10.90;100.00;97087.91;4974500;28;20213;-79
2023/04/24 03:05:17;;;;;;;1.93;0.93;;;;;;;10.86;100.00;97087.31;4974253;28;20213;-79
2023/04/24 03:07:43;;;;;;;0.80;0.80;;;;;;;10.81;100.00;97089.53;4972688;28;20258;-79
2023/04/24 03:10:10;;;;;;;1.23;0.90;;;;;;;10.79;100.00;97095.91;4969906;28;20221;-79
2023/04/24 03:12:36;;;;;;;1.10;0.90;;;;;;;10.75;100.00;97095.34;4970436;28;20210;-79
2023/04/24 03:15:04;;;;;;;1.33;0.90;;;;;;;10.80;100.00;97093.16;4970460;28;20220;-79
2023/04/24 03:17:30;;;;;;;1.93;1.00;;;;;;;10.75;100.00;97083.91;4970465;28;20232;-78
2023/04/24 03:19:57;;;;;;;2.17;0.90;;;;;;;10.70;100.00;97091.44;4969587;28;20217;-79
2023/04/24 03:22:24;;;;;;;1.43;0.80;;;;;;;10.70;100.00;97096.72;4970112;28;20217;-79
2023/04/24 03:24:51;;;;;;;0.83;0.80;;;;;;;10.69;100.00;97089.72;4969845;28;20706;-78
2023/04/24 03:27:18;;;;;;;1.20;0.70;;;;;;;10.59;100.00;97094.16;4969671;28;20680;-78
2023/04/24 03:29:45;;;;;;;0.80;0.80;;;;;;;10.50;100.00;97090.50;4968789;28;20217;-78
2023/04/24 03:32:11;;;;;;;1.80;0.87;;;;;;;10.39;100.00;97082.63;4969765;28;20215;-78
2023/04/24 03:34:37;;;;;;;2.43;0.80;;;;;;;10.38;100.00;97090.69;4969778;28;20227;-78
2023/04/24 03:37:04;;;;;;;0.97;0.90;;;;;;;10.30;100.00;97082.56;4969736;28;20236;-78
2023/04/24 03:39:32;;;;;;;1.83;0.93;;;;;;;10.26;100.00;97083.78;4968904;28;20218;-78
2023/04/24 03:41:58;;;;;;;1.10;0.90;;;;;;;10.24;100.00;97083.94;4971936;28;20239;-78
2023/04/24 03:44:25;;;;;;;2.10;0.80;;;;;;;10.15;100.00;97084.69;4973071;28;20219;-78
2023/04/24 03:46:51;;;;;;;2.20;1.20;;;;;;;10.17;100.00;97076.66;4973241;28;20244;-78
2023/04/24 03:49:17;;;;;;;2.93;0.90;;;;;;;10.17;100.00;97081.94;4972634;28;20209;-78
2023/04/24 03:51:44;;;;;;;1.30;0.90;;;;;;;10.08;100.00;97078.25;4973163;28;20674;-78
2023/04/24 03:54:10;;;;;;;1.40;0.90;;;;;;;10.01;100.00;97076.22;4973751;28;20213;-78
2023/04/24 03:56:38;;;;;;;1.70;0.80;;;;;;;9.99;100.00;97080.81;4972905;28;20320;-78
2023/04/24 03:59:05;;;;;;;1.07;0.97;;;;;;;9.94;100.00;97089.13;4973255;28;20215;-78
2023/04/24 04:01:32;;;;;;;0.70;0.70;;;;;;;9.93;100.00;97086.59;4972839;28;20509;-78
2023/04/24 04:03:58;;;;;;;1.00;0.80;;;;;;;9.89;100.00;97098.34;4972704;28;20222;-78
2023/04/24 04:06:25;;;;;;;0.80;0.70;;;;;;;9.92;100.00;97101.56;4972882;28;20242;-78
2023/04/24 04:08:51;;;;;;;3.13;0.70;;;;;;;9.94;100.00;97096.19;4972579;28;20208;-78
2023/04/24 04:11:17;;;;;;;1.80;0.83;;;;;;;10.05;100.00;97102.28;4972117;28;20214;-78
2023/04/24 04:13:47;;;;;;;2.20;0.93;;;;;;;10.13;100.00;97104.28;4972862;28;20211;-78
2023/04/24 04:16:16;;;;;;;1.23;0.83;;;;;;;10.22;100.00;97103.53;4972828;28;20269;-78
2023/04/24 04:18:43;;;;;;;1.60;0.80;;;;;;;10.33;100.00;97114.03;4972715;28;20221;-78
2023/04/24 04:21:09;;;;;;;2.10;0.93;;;;;;;10.36;100.00;97127.81;4972064;28;20221;-78
2023/04/24 04:23:36;;;;;;;1.23;0.90;;;;;;;10.46;100.00;97135.78;4972592;28;20211;-78
2023/04/24 04:26:03;;;;;;;1.63;1.20;;;;;;;10.44;100.00;97143.00;4972327;28;20743;-78
2023/04/24 04:28:30;;;;;;;1.27;1.00;;;;;;;10.42;100.00;97155.50;4972627;28;20236;-78
2023/04/24 04:30:58;;;;;;;1.77;0.90;;;;;;;10.38;100.00;97167.28;4971660;28;20851;-78
2023/04/24 04:33:26;;;;;;;1.57;1.00;;;;;;;10.29;100.00;97165.41;4972503;28;20251;-78
2023/04/24 04:35:52;;;;;;;1.57;1.30;;;;;;;10.29;100.00;97166.22;4972141;28;20298;-78
2023/04/24 04:38:19;;;;;;;1.30;1.00;;;;;;;10.27;100.00;97170.00;4972349;28;20207;-78
2023/04/24 04:40:46;;;;;;;1.80;1.10;;;;;;;10.18;100.00;97168.94;4971576;28;20617;-78
2023/04/24 04:43:14;;;;;;;2.43;1.10;;;;;;;10.12;100.00;97179.16;4972041;28;20221;-78
2023/04/24 04:45:41;;;;;;;1.47;1.13;;;;;;;10.11;100.00;97185.41;4972115;28;20742;-78
2023/04/24 04:48:09;;;;;;;2.10;1.30;;;;;;;10.05;100.00;97188.56;4972026;28;20244;-78
2023/04/24 04:50:36;;;;;;;1.20;1.10;;;;;;;9.99;100.00;97184.59;4971305;28;20591;-78
2023/04/24 04:53:02;;;;;;;4.33;1.40;;;;;;;9.98;100.00;97187.34;4972095;28;20218;-78
2023/04/24 04:55:29;;;;;;;2.57;1.50;;;;;;;9.96;100.00;97194.53;4971982;28;20319;-78
2023/04/24 04:57:57;;;;;;;1.10;1.00;;;;;;;9.88;100.00;97192.53;4972021;28;20583;-78
2023/04/24 05:00:25;;;;;;;2.23;1.50;;;;;;;9.85;100.00;97203.34;4971215;28;20216;-78
2023/04/24 05:02:51;;;;;;;1.50;1.10;;;;;;;9.84;100.00;97206.13;4971935;28;20251;-78
2023/04/24 05:05:19;;;;;;;1.43;1.30;;;;;;;9.84;100.00;97206.13;4972092;28;20621;-78
2023/04/24 05:07:46;;;;;;;1.83;1.30;;;;;;;9.83;100.00;97212.31;4971771;28;20232;-78
2023/04/24 05:10:12;;;;;;;1.60;1.50;;;;;;;9.82;100.00;97221.22;4971000;28;20304;-78
2023/04/24 05:12:39;;;;;;;1.50;1.30;;;;;;;9.83;100.00;97230.81;4971768;28;20221;-78
2023/04/24 05:15:06;;;;;;;1.73;1.30;;;;;;;9.80;100.00;97231.06;4971601;28;20212;-78
2023/04/24 05:17:33;;;;;;;3.37;1.60;;;;;;;9.77;100.00;97226.00;4971387;28;20207;-78
2023/04/24 05:20:00;;;;;;;1.50;1.40;;;;;;;9.71;100.00;97237.06;4970938;28;20220;-78
2023/04/24 05:22:28;;;;;;;1.50;1.40;;;;;;;9.72;100.00;97249.31;4971857;28;20650;-78
2023/04/24 05:24:54;;;;;;;1.70;1.43;;;;;;;9.68;100.00;97238.13;4971620;28;20215;-78
2023/04/24 05:27:21;;;;;;;2.13;1.40;;;;;;;9.70;100.00;97248.59;4971466;28;20237;-78
2023/04/24 05:29:47;;;;;;;2.83;1.33;;;;;;;9.70;100.00;97251.22;4970852;28;20303;-78
2023/04/24 05:32:14;;;;;;;2.10;1.40;;;;;;;9.71;100.00;97260.81;4971228;28;20214;-78
2023/04/24 05:34:40;;;;;;;2.17;1.73;;;;;;;9.73;100.00;97266.81;4971332;28;20219;-76
2023/04/24 05:37:09;;;;;;;3.50;1.83;;;;;;;9.77;100.00;97260.31;4971541;28;20237;-76
2023/04/24 05:39:40;;;;;;;2.00;1.40;;;;;;;9.77;100.00;97269.09;4970408;28;20218;-76
2023/04/24 05:42:07;;;;;;;1.53;1.40;;;;;;;9.83;100.00;97271.25;4971173;28;20222;-76
2023/04/24 05:44:34;;;;;;;1.50;1.40;;;;;;;9.84;100.00;97275.56;4971255;28;20213;-76
2023/04/24 05:47:00;;;;;;;1.40;1.30;;;;;;;9.80;100.00;97275.91;4970818;28;20246;-76
2023/04/24 05:49:27;;;;;;;1.80;1.37;;;;;;;9.74;100.00;97289.59;4970373;28;20297;-76
2023/04/24 05:51:53;;;;;;;2.43;1.80;;;;;;;9.67;100.00;97296.31;4971367;28;20239;-76
2023/04/24 05:54:20;;;;;;;2.70;2.17;;;;;;;9.64;100.00;97300.03;4970781;28;20673;-76
2023/04/24 05:56:47;;;;;;;1.83;1.33;;;;;;;9.62;100.00;97295.84;4970809;28;20245;-77
2023/04/24 05:59:14;;;;;;;1.93;1.77;;;;;;;9.72;100.00;97296.81;4970123;28;20565;-76
2023/04/24 06:01:40;;;;;;;2.50;1.50;;;;;;;9.77;100.00;97299.91;4971150;28;20210;-76
2023/04/24 06:04:07;;;;;;;2.00;1.53;;;;;;;9.89;100.00;97301.56;4970024;28;20362;-76
2023/04/24 06:06:34;;;;;;;2.00;1.60;;;;;;;9.97;100.00;97307.09;4970776;28;20232;-76
2023/04/24 06:09:00;;;;;;;2.23;1.73;;;;;;;9.94;100.00;97312.59;4970777;28;20241;-76
2023/04/24 06:11:27;;;;;;;2.03;1.50;;;;;;;9.87;100.00;97311.41;4970283;28;20219;-75
2023/04/24 06:13:55;;;;;;;1.67;1.50;;;;;;;9.82;100.00;97306.50;4970615;28;20221;-76
2023/04/24 06:16:21;;;;;;;1.93;1.40;;;;;;;9.76;100.00;97307.00;4970831;28;20241;-76
2023/04/24 06:18:48;;;;;;;1.80;1.70;;;;;;;9.76;100.00;97308.78;4971089;28;20410;-76
2023/04/24 06:21:15;;;;;;;2.40;1.70;;;;;;;9.85;100.00;97305.44;4969967;28;20212;-76
2023/04/24 06:23:41;;;;;;;1.70;1.60;;;;;;;10.04;100.00;97298.56;4970504;28;20737;-77
2023/04/24 06:26:08;;;;;;;1.73;1.60;;;;;;;10.19;100.00;97302.63;4970467;28;20266;-76
2023/04/24 06:28:34;;;;;;;2.20;1.50;;;;;;;10.34;100.00;97303.19;4970405;28;20257;-77
2023/04/24 06:31:02;;;;;;;1.47;1.37;;;;;;;10.53;100.00;97292.81;4969992;28;20217;-76
2023/04/24 06:33:29;;;;;;;1.50;1.40;;;;;;;10.66;100.00;97282.91;4970796;28;20209;-77
2023/04/24 06:35:55;;;;;;;2.00;1.60;;;;;;;10.74;100.00;97283.09;4970727;28;20250;-76
2023/04/24 06:38:22;;;;;;;1.37;1.27;;;;;;;10.88;100.00;97280.16;4970758;28;20549;-76
2023/04/24 06:40:48;;;;;;;1.93;1.77;;;;;;;10.98;100.00;97273.97;4969609;28;20210;-76
2023/04/24 06:43:15;;;;;;;1.80;1.60;;;;;;;11.10;100.00;97280.00;4970507;28;20242;-76
2023/04/24 06:45:43;;;;;;;1.63;1.50;;;;;;;11.23;100.00;97275.34;4970607;28;20238;-77
2023/04/24 06:48:11;;;;;;;3.90;1.60;;;;;;;11.34;100.00;97286.72;4970615;28;20284;-83
2023/04/24 06:50:37;;;;;;;1.90;1.57;;;;;;;11.26;96.57;97267.19;4969882;28;20219;-80
2023/04/24 06:53:04;;;;;;;2.10;1.60;;;;;;;11.23;93.95;97270.06;4970583;28;20218;-79
2023/04/24 06:55:30;;;;;;;2.20;1.40;;;;;;;11.32;93.99;97269.31;4969968;28;20606;-79
2023/04/24 06:57:57;;;;;;;2.72;2.10;;;;;;;11.40;94.44;97277.41;4967914;28;20449;-79
2023/04/24 07:00:24;;;;;;;1.83;1.53;;;;;;;11.44;95.52;97284.13;4966950;28;20237;-78
2023/04/24 07:02:50;;;;;;;3.40;1.60;;;;;;;11.56;94.07;97278.59;4970330;28;20211;-78
2023/04/24 07:05:19;;;;;;;2.43;2.00;;;;;;;11.77;94.19;97278.56;4968909;28;20211;-78
2023/04/24 07:07:47;;;;;;;2.23;1.47;;;;;;;11.97;89.25;97264.41;4969946;28;20689;-78
2023/04/24 07:10:14;;;;;;;1.87;1.67;;;;;;;12.10;89.25;97267.69;4969306;28;20217;-78
2023/04/24 07:12:40;;;;;;;2.90;1.70;;;;;;;12.22;89.22;97266.59;4969625;28;20566;-77
2023/04/24 07:15:08;;;;;;;2.13;1.93;;;;;;;12.37;87.39;97265.19;4969251;28;20211;-77
2023/04/24 07:17:35;;;;;;;3.30;1.80;;;;;;;12.28;81.99;97239.53;4970012;28;20206;-76
2023/04/24 07:20:02;;;;;;;1.87;1.67;;;;;;;12.32;83.44;97248.88;4969500;28;20301;-76
2023/04/24 07:22:30;;;;;;;2.33;1.77;;;;;;;12.30;80.05;97242.88;4969955;28;20210;-76
2023/04/24 07:24:56;;;;;;;3.00;1.60;;;;;;;12.18;78.65;97254.59;4969810;28;20296;-84
2023/04/24 07:27:23;;;;;;;1.73;1.60;;;;;;;12.13;77.34;97251.50;4970221;28;20207;-80
2023/04/24 07:29:49;;;;;;;2.87;1.60;;;;;;;12.05;79.17;97264.59;4969084;28;20302;-80
2023/04/24 07:32:16;;;;;;;1.30;1.20;;;;;;;12.03;78.35;97266.53;4969891;28;20273;-80
2023/04/24 07:34:42;;;;;;;2.27;1.70;;;;;;;12.07;79.20;97274.09;4969914;28;20211;-80
2023/04/24 07:37:09;;;;;;;1.50;1.40;;;;;;;12.31;80.08;97276.34;4969659;28;20238;-79
2023/04/24 07:39:37;;;;;;;1.60;1.50;;;;;;;12.63;76.70;97271.63;4969141;28;20211;-80
2023/04/24 07:42:04;;;;;;;1.60;1.50;;;;;;;12.95;76.08;97261.59;4970132;28;20217;-80
2023/04/24 07:44:31;;;;;;;1.50;1.40;;;;;;;13.22;75.55;97272.31;4969899;28;20649;-80
2023/04/24 07:46:58;;;;;;;1.93;1.57;;;;;;;13.11;69.08;97241.47;4969954;28;20235;-82
2023/04/24 07:49:24;;;;;;;1.30;1.20;;;;;;;12.97;69.84;97259.66;4969031;28;20241;-80
2023/04/24 07:51:51;;;;;;;2.00;1.30;;;;;;;12.84;70.81;97270.50;4969803;28;20214;-81
2023/04/24 07:54:17;;;;;;;3.17;1.50;;;;;;;12.84;70.28;97264.38;4969582;28;20207;-81
2023/04/24 07:56:45;;;;;;;1.47;1.37;;;;;;;12.87;68.45;97250.81;4969462;28;20238;-80
2023/04/24 07:59:12;;;;;;;1.40;1.30;;;;;;;12.77;65.93;97242.88;4968684;28;20251;-81
2023/04/24 08:01:39;;;;;;;1.93;1.37;;;;;;;12.83;67.46;97260.88;4969720;28;20245;-81
2023/04/24 08:04:05;;;;;;;2.90;1.40;;;;;;;12.92;67.01;97272.47;4969378;28;20218;-81
2023/04/24 08:06:32;;;;;;;3.13;1.50;;;;;;;13.04;68.37;97279.31;4969416;28;20235;-81
2023/04/24 08:08:58;;;;;;;2.80;1.40;;;;;;;13.26;65.49;97273.72;4969366;28;20597;-81
2023/04/24 08:11:25;;;;;;;2.90;1.43;;;;;;;13.14;64.38;97269.53;4968955;28;20215;-81
2023/04/24 08:13:54;;;;;;;1.77;1.40;;;;;;;13.07;66.42;97271.09;4968978;28;20661;-81
2023/04/24 08:16:21;;;;;;;3.90;1.40;;;;;;;13.19;67.37;97289.34;4969233;28;20231;-77
2023/04/24 08:18:47;;;;;;;2.00;1.70;;;;;;;13.31;67.21;97290.84;4969433;28;20220;-80
2023/04/24 08:21:16;;;;;;;1.60;1.40;;;;;;;13.17;65.65;97293.13;4964942;28;20227;-80
2023/04/24 08:23:43;;;;;;;2.93;1.33;;;;;;;13.17;67.67;97304.59;4968990;28;20590;-78
2023/04/24 08:26:10;;;;;;;1.40;1.30;;;;;;;12.94;66.66;97303.16;4968366;28;20235;-80
2023/04/24 08:28:37;;;;;;;1.30;1.10;;;;;;;12.79;65.87;97303.72;4971052;28;20239;-80
2023/04/24 08:31:05;;;;;;;1.77;1.43;;;;;;;12.67;65.60;97299.53;4971088;28;20215;-80
2023/04/24 08:33:34;;;;;;;2.37;1.60;;;;;;;12.57;65.33;97310.13;4971853;28;20222;-80
2023/04/24 08:36:00;;;;;;;2.93;1.30;;;;;;;12.53;64.44;97308.72;4999234;23;20228;-76
2023/04/24 08:38:27;;;;;;;2.63;1.50;;;;;;;12.57;63.32;97299.53;5052111;28;20201;-75
2023/04/24 08:40:54;;;;;;;3.07;1.60;;;;;;;12.71;63.81;97306.25;5052882;28;20209;-76
2023/04/24 08:43:22;;;;;;;3.00;1.37;;;;;;;12.84;64.16;97306.81;5053734;28;20215;-77
2023/04/24 08:45:49;;;;;;;2.43;1.50;;;;;;;12.73;62.07;97299.00;5056858;28;20231;-78
2023/04/24 08:48:18;;;;;;;2.60;1.47;;;;;;;12.63;64.16;97301.63;5073659;28;20243;-78
2023/04/24 08:50:45;;;;;;;1.43;1.33;;;;;;;12.65;61.04;97296.19;5073208;28;20293;-78
2023/04/24 08:53:12;;;;;;;2.60;1.30;;;;;;;12.78;60.94;97296.75;5073638;28;20207;-78
2023/04/24 08:55:39;;;;;;;2.20;1.20;;;;;;;12.82;59.71;97293.69;5073557;28;20208;-79
2023/04/24 08:58:06;;;;;;;2.00;1.13;;;;;;;12.93;58.30;97284.72;5073744;28;20216;-79
2023/04/24 09:00:33;;;;;;;2.47;1.37;;;;;;;13.03;59.32;97288.25;5072720;28;20212;-78
2023/04/24 09:03:01;;;;;;;1.37;1.10;;;;;;;12.92;59.50;97306.94;5073994;28;20237;-79
2023/04/24 09:05:30;;;;;;;2.23;1.50;;;;;;;12.95;60.34;97304.03;5073411;28;20215;-79
2023/04/24 09:07:57;;;;;;;5.23;1.33;;;;;;;13.09;59.41;97296.47;5073239;28;20241;-81
2023/04/24 09:10:25;;;;;;;1.20;1.10;;;;;;;13.14;59.52;97294.25;5072854;28;20215;-78
2023/04/24 09:12:52;;;;;;;3.27;1.30;;;;;;;13.24;59.83;97304.84;5073257;28;20237;-78
2023/04/24 09:15:20;;;;;;;1.70;1.17;;;;;;;13.23;59.67;97305.81;5073149;28;20214;-78
2023/04/24 09:17:46;;;;;;;3.50;1.40;;;;;;;13.49;59.54;97321.00;5073212;28;20277;-77
2023/04/24 09:20:13;;;;;;;1.70;1.03;;;;;;;13.44;58.97;97301.19;5072525;28;20207;-78
2023/04/24 09:22:42;;;;;;;1.77;1.13;;;;;;;13.33;58.83;97310.13;5073158;28;20219;-84
2023/04/24 09:25:12;;;;;;;2.33;1.07;;;;;;;12.95;58.04;97309.31;5073117;28;20211;-82
2023/04/24 09:27:42;;;;;;;1.53;1.13;;;;;;;12.74;59.97;97337.78;5072746;28;20267;-82
2023/04/24 09:30:10;;;;;;;1.50;1.30;;;;;;;12.67;62.98;97363.16;5069762;28;20228;-83
2023/04/24 09:32:36;;;;;;;2.10;1.10;;;;;;;12.59;61.32;97349.78;5071637;28;20215;-83
2023/04/24 09:35:10;;;;;;;2.10;1.03;;;;;;;12.46;61.71;97351.84;5072201;28;20211;-83
2023/04/24 09:37:38;;;;;;;1.63;1.13;;;;;;;12.48;63.10;97363.97;5070632;28;20787;-83
2023/04/24 09:40:14;;;;;;;1.67;1.10;;;;;;;12.64;62.22;97361.63;5070458;28;20283;-83
2023/04/24 09:42:41;;;;;;;1.53;1.23;;;;;;;12.54;61.95;97352.00;5072049;28;20211;-83
2023/04/24 09:45:11;;;;;;;1.80;1.20;;;;;;;12.78;63.87;97371.00;5071338;28;20218;-83
2023/04/24 09:47:38;;;;;;;2.20;1.30;;;;;;;13.04;61.67;97353.59;5071756;28;20284;-80
2023/04/24 09:50:11;;;;;;;1.33;1.23;;;;;;;13.41;62.92;97359.84;5071862;28;20599;-77
2023/04/24 09:52:41;;;;;;;1.67;1.30;;;;;;;13.76;60.06;97349.44;5072564;28;20203;-78
2023/04/24 09:55:14;;;;;;;2.60;1.20;;;;;;;13.56;59.34;97343.34;5072725;28;20257;-81
2023/04/24 09:57:49;;;;;;;1.30;1.20;;;;;;;13.06;58.29;97333.91;5072208;28;20238;-79
2023/04/24 10:00:20;;;;;;;2.20;1.20;;;;;;;12.70;59.02;97344.31;5071878;28;20213;-82
2023/04/24 10:02:50;;;;;;;1.33;1.03;;;;;;;12.87;59.09;97359.56;5072278;28;20250;-83
2023/04/24 10:05:18;;;;;;;1.10;0.83;;;;;;;12.89;58.92;97352.31;5072182;28;20207;-81
2023/04/24 10:07:44;;;;;;;2.47;1.30;;;;;;;12.90;59.34;97369.91;5072289;28;20345;-83
2023/04/24 10:10:13;;;;;;;1.67;1.20;;;;;;;12.96;59.11;97361.41;5071528;28;20271;-79
2023/04/24 10:12:40;;;;;;;1.20;1.10;;;;;;;13.16;58.35;97363.09;5072078;28;20270;-80
2023/04/24 10:15:09;;;;;;;1.83;1.20;;;;;;;13.50;57.92;97359.81;5072210;28;20294;-82
2023/04/24 10:17:37;;;;;;;1.43;1.03;;;;;;;13.64;57.75;97356.72;5072088;28;20228;-82
2023/04/24 10:20:04;;;;;;;1.20;1.03;;;;;;;14.04;55.65;97343.16;5071126;28;20206;-84
2023/04/24 10:22:30;;;;;;;1.20;1.00;;;;;;;13.92;54.06;97317.75;5072124;28;20208;-84
2023/04/24 10:24:58;;;;;;;1.77;1.30;;;;;;;13.79;55.79;97355.28;5072004;28;20209;-86
2023/04/24 10:27:28;;;;;;;1.20;1.10;;;;;;;13.57;54.23;97333.56;5073074;28;20232;-86
2023/04/24 10:29:55;;;;;;;1.50;1.00;;;;;;;13.22;54.58;97333.34;5070893;28;20717;-83
2023/04/24 10:32:22;;;;;;;1.20;1.10;;;;;;;13.07;55.66;97340.06;5071812;28;20220;-83
2023/04/24 10:34:48;;;;;;;1.57;1.10;;;;;;;12.91;55.58;97345.88;5071621;28;20625;-85
2023/04/24 10:37:16;;;;;;;1.63;1.10;;;;;;;12.76;56.58;97363.19;5071551;28;20239;-83
2023/04/24 10:39:42;;;;;;;1.47;1.30;;;;;;;12.68;56.90;97370.13;5071022;28;20294;-84
2023/04/24 10:42:15;;;;;;;1.97;1.30;;;;;;;12.61;57.40;97363.72;5071720;28;20214;-87
2023/04/24 10:44:43;;;;;;;1.63;1.40;;;;;;;12.42;56.52;97363.69;5071536;28;20233;-84
2023/04/24 10:47:14;;;;;;;1.20;1.10;;;;;;;12.35;56.76;97365.19;5071926;28;20238;-78
2023/04/24 10:49:41;;;;;;;1.97;1.20;;;;;;;12.37;56.30;97368.53;5070320;28;20288;-78
2023/04/24 10:52:09;;;;;;;2.37;1.40;;;;;;;12.31;55.54;97363.78;5068221;28;20207;-78
2023/04/24 10:54:39;;;;;;;1.20;1.10;;;;;;;12.42;56.63;97379.56;5070499;28;20944;-77
2023/04/24 10:57:28;;;;;;;1.63;1.30;;;;;;;12.67;56.82;97384.38;5070297;28;20464;-78
2023/04/24 11:00:27;;;;;;;1.60;1.20;;;;;;;12.82;56.78;97398.91;5069205;28;20257;-78
2023/04/24 11:02:55;;;;;;;2.37;1.30;;;;;;;13.01;56.70;97388.38;5070378;28;20207;-78
2023/04/24 11:05:22;;;;;;;2.17;1.30;;;;;;;13.04;55.38;97369.50;5070249;28;20280;-78
2023/04/24 11:08:16;;;;;;;1.40;1.23;;;;;;;13.13;54.60;97377.47;5069396;28;20237;-81
2023/04/24 11:10:45;;;;;;;3.73;1.83;;;;;;;13.97;57.06;97416.47;5055314;28;20241;-76
2023/04/24 11:13:15;;;;;;;1.50;1.20;;;;;;;14.56;55.22;97399.22;5070274;28;20212;-77
2023/04/24 11:15:43;;;;;;;1.40;0.97;;;;;;;14.77;54.24;97402.44;5069708;28;20212;-77
2023/04/24 11:18:14;;;;;;;1.07;1.00;;;;;;;14.68;52.63;97378.56;5070740;28;20207;-89
2023/04/24 11:20:43;;;;;;;1.90;1.20;;;;;;;14.27;52.19;97371.06;5069500;28;20208;-89
2023/04/24 11:23:09;;;;;;;1.47;1.17;;;;;;;14.41;53.05;97390.03;5069737;28;20216;-89
2023/04/24 11:25:36;;;;;;;1.43;1.20;;;;;;;14.48;52.15;97380.47;5070376;28;20633;-88
2023/04/24 11:28:06;;;;;;;1.80;1.37;;;;;;;14.20;51.74;97372.66;5070398;28;20291;-89
2023/04/24 11:30:35;;;;;;;2.03;1.40;;;;;;;14.38;53.75;97394.81;5068421;28;20267;-89